Time;durP1;ratioP1;P1;durP2;ratioP2;P2;SDS_P1;SDS_P2;PMS_P1;PMS_P2;Temp;Humidity;BMP_temperature;BMP_pressure;BME280_temperature;BME280_humidity;BME280_pressure;Samples;Min_cycle;Max_cycle;Signal;HPM_P1;HPM_P2
2021/12/13 00:00:14;;;;;;;51.65;23.92;;;;;;;11.89;71.92;101889.50;687727;28;1318;-83
2021/12/13 00:00:48;;;;;;;54.55;23.42;;;;;;;11.87;71.75;101881.59;685129;28;1133;-83
2021/12/13 00:01:33;;;;;;;47.08;22.73;;;;;;;11.87;72.00;101885.94;684622;28;1130;-83
2021/12/13 00:02:04;;;;;;;49.03;23.00;;;;;;;11.84;71.67;101891.03;690970;28;1515;-83
2021/12/13 00:02:33;;;;;;;50.80;23.10;;;;;;;11.82;71.77;101890.06;693308;28;1487;-83
2021/12/13 00:03:06;;;;;;;49.58;23.00;;;;;;;11.83;71.90;101887.53;693431;28;1043;-83
2021/12/13 00:03:51;;;;;;;47.72;23.58;;;;;;;11.84;72.23;101886.69;685555;28;1382;-83
2021/12/13 00:04:17;;;;;;;46.72;22.13;;;;;;;11.90;72.07;101906.97;685471;28;1345;-83
2021/12/13 00:04:48;;;;;;;48.28;22.42;;;;;;;11.83;72.12;101891.84;686242;28;776;-83
2021/12/13 00:05:17;;;;;;;47.72;22.63;;;;;;;11.87;72.21;101904.25;687610;28;1093;-83
2021/12/13 00:05:44;;;;;;;49.42;23.23;;;;;;;11.92;71.93;101900.06;688177;28;838;-83
2021/12/13 00:06:15;;;;;;;47.40;23.08;;;;;;;11.88;71.86;101887.72;688012;28;1284;-83
2021/12/13 00:06:45;;;;;;;43.75;22.75;;;;;;;11.82;71.87;101877.91;690362;28;1241;-83
2021/12/13 00:07:15;;;;;;;45.97;23.38;;;;;;;11.82;71.98;101882.22;693717;28;1718;-83
2021/12/13 00:07:39;;;;;;;46.30;23.08;;;;;;;11.80;72.02;101879.53;687524;28;1254;-82
2021/12/13 00:08:08;;;;;;;44.00;22.10;;;;;;;11.89;71.79;101899.97;690313;28;1394;-83
2021/12/13 00:08:32;;;;;;;45.08;21.50;;;;;;;11.84;72.13;101885.78;685359;28;1277;-83
2021/12/13 00:08:58;;;;;;;47.33;21.60;;;;;;;11.93;71.71;101891.44;679691;29;1374;-83
2021/12/13 00:09:22;;;;;;;49.70;22.58;;;;;;;11.91;72.00;101896.59;690109;28;1300;-83
2021/12/13 00:09:46;;;;;;;47.58;22.48;;;;;;;11.89;71.96;101895.63;686585;28;1403;-83
2021/12/13 00:10:14;;;;;;;47.45;22.40;;;;;;;11.81;71.82;101883.97;691416;28;1298;-82
2021/12/13 00:10:59;;;;;;;46.53;23.20;;;;;;;11.89;71.96;101890.41;688134;28;1286;-83
2021/12/13 00:11:23;;;;;;;50.60;22.58;;;;;;;11.91;71.70;101893.06;692056;28;1062;-83
2021/12/13 00:11:54;;;;;;;49.90;22.90;;;;;;;11.82;71.83;101877.00;689409;28;1985;-83
2021/12/13 00:12:28;;;;;;;46.53;22.92;;;;;;;11.97;72.16;101897.69;684864;28;1588;-83
2021/12/13 00:12:57;;;;;;;46.92;22.33;;;;;;;11.97;71.69;101898.56;688149;28;1299;-83
2021/12/13 00:13:26;;;;;;;45.83;22.15;;;;;;;11.95;71.74;101884.53;690866;28;1008;-82
2021/12/13 00:13:55;;;;;;;46.67;22.15;;;;;;;11.92;71.50;101894.84;688203;28;799;-83
2021/12/13 00:14:21;;;;;;;49.33;22.23;;;;;;;11.93;71.75;101894.03;690887;28;1013;-83
2021/12/13 00:14:53;;;;;;;50.42;21.95;;;;;;;11.96;71.70;101894.16;688172;28;800;-83
2021/12/13 00:15:23;;;;;;;51.83;22.50;;;;;;;11.95;71.80;101889.75;690500;28;1401;-83
2021/12/13 00:16:00;;;;;;;47.95;23.05;;;;;;;11.89;71.61;101884.28;689502;28;1090;-84
2021/12/13 00:16:31;;;;;;;46.20;23.48;;;;;;;11.93;71.62;101886.19;688105;28;1173;-83
2021/12/13 00:17:08;;;;;;;47.75;23.40;;;;;;;11.95;71.57;101884.53;687806;28;969;-83
2021/12/13 00:17:37;;;;;;;48.83;23.25;;;;;;;11.91;71.84;101885.22;688675;28;812;-84
2021/12/13 00:18:00;;;;;;;52.75;23.00;;;;;;;11.88;71.80;101877.25;687151;28;1132;-82
2021/12/13 00:18:26;;;;;;;49.72;22.95;;;;;;;11.96;71.74;101896.75;684342;28;1091;-83
2021/12/13 00:18:48;;;;;;;48.03;23.45;;;;;;;11.94;71.55;101890.59;685409;28;1241;-83
2021/12/13 00:19:12;;;;;;;49.85;23.42;;;;;;;11.94;71.78;101885.34;685557;28;1219;-83
2021/12/13 00:19:43;;;;;;;54.28;23.42;;;;;;;11.94;71.81;101882.75;690590;28;1209;-83
2021/12/13 00:20:38;;;;;;;54.65;23.35;;;;;;;11.96;71.28;101881.06;690667;28;1171;-83
2021/12/13 00:21:07;;;;;;;49.20;22.95;;;;;;;12.01;71.50;101890.00;684943;28;1072;-83
2021/12/13 00:21:33;;;;;;;50.45;23.17;;;;;;;12.04;71.28;101897.97;689808;28;1130;-83
2021/12/13 00:22:02;;;;;;;51.83;23.88;;;;;;;11.96;71.17;101882.78;685423;28;1794;-83
2021/12/13 00:23:00;;;;;;;50.78;24.12;;;;;;;12.02;71.33;101897.03;685615;28;839;-82
2021/12/13 00:23:28;;;;;;;52.92;23.15;;;;;;;11.97;71.79;101898.56;678723;29;1955;-83
2021/12/13 00:23:54;;;;;;;53.63;23.33;;;;;;;11.86;71.82;101892.00;679375;29;1262;-84
2021/12/13 00:24:23;;;;;;;50.20;24.35;;;;;;;11.93;71.83;101894.91;682497;29;1257;-83
2021/12/13 00:24:45;;;;;;;53.22;25.30;;;;;;;11.85;71.71;101882.38;678740;29;1134;-84
2021/12/13 00:25:14;;;;;;;54.72;25.08;;;;;;;11.91;72.00;101893.06;677605;29;1413;-83
2021/12/13 00:25:39;;;;;;;52.42;25.08;;;;;;;11.95;71.70;101894.97;680268;29;918;-83
2021/12/13 00:26:02;;;;;;;50.20;24.75;;;;;;;11.92;72.01;101890.53;680516;28;1228;-84
2021/12/13 00:26:29;;;;;;;48.95;24.25;;;;;;;11.93;71.93;101887.06;685508;28;854;-83
2021/12/13 00:27:00;;;;;;;52.10;24.80;;;;;;;11.91;71.72;101903.53;685474;28;998;-83
2021/12/13 00:27:29;;;;;;;53.25;24.63;;;;;;;11.89;71.79;101890.41;685365;28;1022;-83
2021/12/13 00:28:00;;;;;;;54.03;24.27;;;;;;;11.88;71.63;101882.50;687978;28;1269;-83
2021/12/13 00:28:25;;;;;;;48.78;24.40;;;;;;;11.96;72.15;101891.53;691147;28;1310;-83
2021/12/13 00:28:46;;;;;;;47.50;24.80;;;;;;;11.91;71.81;101898.28;695448;28;881;-83
2021/12/13 00:29:16;;;;;;;48.50;24.60;;;;;;;11.94;71.41;101895.81;688924;28;1158;-83
2021/12/13 00:29:58;;;;;;;52.17;24.50;;;;;;;12.01;71.79;101895.25;688465;28;811;-83
2021/12/13 00:30:54;;;;;;;55.78;24.00;;;;;;;11.97;71.84;101903.78;685235;28;1142;-83
2021/12/13 00:31:23;;;;;;;50.42;24.40;;;;;;;11.91;71.81;101887.81;686344;28;1181;-83
2021/12/13 00:32:10;;;;;;;50.28;24.60;;;;;;;11.93;71.81;101894.91;690829;28;1967;-83
2021/12/13 00:32:54;;;;;;;49.80;24.77;;;;;;;11.95;71.64;101894.97;690465;28;1537;-83
2021/12/13 00:33:18;;;;;;;51.65;24.65;;;;;;;11.89;71.59;101884.28;690623;28;1213;-83
2021/12/13 00:33:57;;;;;;;53.35;24.70;;;;;;;11.91;71.82;101901.81;688147;28;849;-83
2021/12/13 00:34:38;;;;;;;54.08;24.35;;;;;;;11.96;71.78;101896.75;690696;28;1063;-83
2021/12/13 00:35:04;;;;;;;55.05;25.75;;;;;;;11.87;71.86;101891.16;688994;28;1009;-83
2021/12/13 00:35:42;;;;;;;51.80;25.90;;;;;;;11.91;71.78;101895.69;692063;28;1215;-83
2021/12/13 00:36:47;;;;;;;52.88;25.63;;;;;;;11.96;71.72;101906.31;687729;28;1139;-84
2021/12/13 00:37:17;;;;;;;52.33;24.65;;;;;;;12.00;71.88;101896.06;678995;29;1434;-83
2021/12/13 00:37:41;;;;;;;54.95;25.88;;;;;;;11.99;71.65;101902.09;688228;28;815;-83
2021/12/13 00:38:05;;;;;;;54.13;25.63;;;;;;;11.93;71.79;101897.53;686220;28;1572;-84
2021/12/13 00:38:29;;;;;;;56.30;24.75;;;;;;;11.87;71.77;101888.56;688058;28;1352;-83
2021/12/13 00:38:58;;;;;;;57.40;24.50;;;;;;;11.84;71.94;101897.16;685456;28;1588;-83
2021/12/13 00:39:29;;;;;;;55.03;24.45;;;;;;;11.91;71.91;101895.69;684808;28;1194;-83
2021/12/13 00:40:05;;;;;;;52.65;24.77;;;;;;;11.92;72.09;101900.06;690318;28;1229;-83
2021/12/13 00:40:31;;;;;;;51.65;24.92;;;;;;;11.90;71.79;101896.50;687108;28;1103;-83
2021/12/13 00:41:03;;;;;;;50.80;24.65;;;;;;;11.88;71.77;101887.72;682490;28;1655;-84
2021/12/13 00:41:28;;;;;;;50.50;24.58;;;;;;;11.95;71.89;101894.97;682782;29;1176;-83
2021/12/13 00:41:50;;;;;;;50.63;24.75;;;;;;;11.86;72.03;101890.25;685324;28;1150;-84
2021/12/13 00:42:11;;;;;;;52.15;24.67;;;;;;;11.86;72.14;101878.94;685157;28;1198;-83
2021/12/13 00:42:37;;;;;;;52.50;25.23;;;;;;;11.97;71.70;101895.94;688123;28;1420;-83
2021/12/13 00:43:02;;;;;;;52.03;25.95;;;;;;;11.91;71.65;101890.44;690336;28;1715;-83
2021/12/13 00:43:30;;;;;;;54.20;26.70;;;;;;;11.92;71.65;101887.91;690918;28;724;-84
2021/12/13 00:43:55;;;;;;;55.13;26.33;;;;;;;11.92;71.63;101887.00;690502;28;860;-84
2021/12/13 00:44:20;;;;;;;52.70;25.33;;;;;;;11.95;71.68;101896.69;685415;28;1102;-83
2021/12/13 00:44:45;;;;;;;53.88;25.20;;;;;;;11.93;71.69;101899.28;686485;28;854;-83
2021/12/13 00:45:26;;;;;;;54.67;25.17;;;;;;;12.01;71.77;101905.69;691758;28;1406;-83
2021/12/13 00:45:57;;;;;;;57.35;25.33;;;;;;;11.98;71.46;101895.09;689891;28;1747;-83
2021/12/13 00:46:20;;;;;;;57.88;26.38;;;;;;;11.94;71.72;101893.22;686585;28;1458;-83
2021/12/13 00:46:44;;;;;;;54.38;25.42;;;;;;;11.90;71.93;101897.41;690794;28;1354;-83
2021/12/13 00:47:08;;;;;;;51.95;24.48;;;;;;;11.93;71.94;101896.66;690009;28;1689;-83
2021/12/13 00:47:31;;;;;;;47.67;23.85;;;;;;;11.94;71.96;101887.97;688062;28;1226;-83
2021/12/13 00:47:51;;;;;;;52.13;24.90;;;;;;;11.91;71.72;101893.06;687893;28;1230;-83
2021/12/13 00:48:12;;;;;;;53.07;25.43;;;;;;;11.94;71.77;101893.22;687507;28;1282;-83
2021/12/13 00:48:38;;;;;;;54.60;25.60;;;;;;;11.95;72.07;101900.22;690697;28;842;-83
2021/12/13 00:49:00;;;;;;;53.72;24.58;;;;;;;11.87;71.74;101885.94;687678;28;1374;-83
2021/12/13 00:49:26;;;;;;;53.92;23.80;;;;;;;11.87;71.90;101885.94;686620;28;1319;-83
2021/12/13 00:49:54;;;;;;;50.65;24.00;;;;;;;11.90;71.71;101901.75;689745;28;1040;-83
2021/12/13 00:50:44;;;;;;;50.22;24.90;;;;;;;11.93;71.81;101896.66;687199;28;1078;-83
2021/12/13 00:51:36;;;;;;;54.60;24.92;;;;;;;11.88;72.09;101899.09;687435;28;1468;-85
2021/12/13 00:51:58;;;;;;;46.92;23.70;;;;;;;11.84;72.10;101888.41;679790;29;1777;-80
2021/12/13 00:52:19;;;;;;;48.40;24.67;;;;;;;11.86;71.81;101886.78;684281;28;1412;-84
2021/12/13 00:52:43;;;;;;;48.05;25.33;;;;;;;11.89;72.03;101894.72;684622;28;1073;-83
2021/12/13 00:53:05;;;;;;;48.20;26.13;;;;;;;11.89;72.02;101881.66;687757;28;1283;-83
2021/12/13 00:53:29;;;;;;;47.85;25.73;;;;;;;11.94;71.94;101898.44;688399;28;1349;-83
2021/12/13 00:53:51;;;;;;;52.38;25.77;;;;;;;11.91;72.02;101893.97;689196;28;1729;-83
2021/12/13 00:54:18;;;;;;;52.63;25.30;;;;;;;11.90;71.55;101888.66;685308;28;1075;-83
2021/12/13 00:54:39;;;;;;;53.20;25.60;;;;;;;11.86;72.01;101884.16;682608;29;836;-83
2021/12/13 00:55:01;;;;;;;54.10;26.58;;;;;;;11.85;72.13;101882.38;683386;28;1219;-83
2021/12/13 00:55:25;;;;;;;52.53;26.35;;;;;;;11.91;71.87;101887.81;686843;28;1493;-83
2021/12/13 00:55:50;;;;;;;53.42;26.75;;;;;;;11.97;72.09;101902.91;688767;28;1453;-82
2021/12/13 00:56:49;;;;;;;50.67;25.30;;;;;;;11.92;71.77;101895.75;690577;28;1386;-83
2021/12/13 00:57:30;;;;;;;47.22;24.08;;;;;;;11.93;72.02;101901.88;686760;28;1427;-83
2021/12/13 00:58:06;;;;;;;53.67;26.05;;;;;;;11.94;72.05;101903.66;685407;28;926;-84
2021/12/13 00:58:27;;;;;;;56.45;27.00;;;;;;;11.97;71.97;101895.94;686443;28;921;-83
2021/12/13 00:58:53;;;;;;;54.47;26.27;;;;;;;11.97;71.84;101893.31;695451;28;799;-83
2021/12/13 00:59:24;;;;;;;54.70;25.90;;;;;;;12.02;71.39;101897.03;687033;28;1235;-83
2021/12/13 01:00:11;;;;;;;53.55;26.90;;;;;;;12.10;71.30;101912.13;685391;28;1355;-83
2021/12/13 01:00:38;;;;;;;53.22;26.65;;;;;;;11.98;71.50;101892.47;680539;28;1293;-83
2021/12/13 01:01:08;;;;;;;52.40;26.33;;;;;;;11.98;71.58;101895.09;687761;28;1201;-83
2021/12/13 01:01:29;;;;;;;53.72;25.30;;;;;;;12.03;71.29;101905.75;685270;28;917;-83
2021/12/13 01:02:12;;;;;;;55.30;25.17;;;;;;;12.05;71.44;101907.59;684855;28;806;-83
2021/12/13 01:02:44;;;;;;;54.33;25.45;;;;;;;12.03;71.64;101914.50;682716;29;813;-84
2021/12/13 01:03:54;;;;;;;58.83;26.27;;;;;;;12.03;71.53;101913.59;683730;28;1145;-83
2021/12/13 01:04:15;;;;;;;54.15;26.00;;;;;;;12.00;71.35;101900.41;682081;28;1234;-83
2021/12/13 01:04:53;;;;;;;53.35;26.73;;;;;;;12.01;71.31;101902.19;687858;28;1358;-83
2021/12/13 01:05:16;;;;;;;51.85;25.48;;;;;;;12.02;71.61;101902.25;690379;28;1217;-83
2021/12/13 01:05:58;;;;;;;50.45;25.45;;;;;;;12.01;71.65;101904.78;690585;28;1123;-84
2021/12/13 01:06:43;;;;;;;50.03;26.15;;;;;;;12.02;71.71;101907.50;687854;28;1073;-83
2021/12/13 01:07:41;;;;;;;53.45;26.45;;;;;;;12.04;71.47;101900.59;686206;28;1136;-83
2021/12/13 01:08:31;;;;;;;53.70;25.88;;;;;;;11.96;71.71;101888.91;689362;28;1100;-83
2021/12/13 01:09:10;;;;;;;54.22;26.08;;;;;;;12.03;71.61;101919.72;686801;28;1481;-83
2021/12/13 01:10:04;;;;;;;52.50;26.40;;;;;;;11.99;71.57;101903.84;689940;28;1517;-83
2021/12/13 01:10:43;;;;;;;56.32;25.24;;;;;;;12.02;71.56;101904.88;690760;28;984;-83
2021/12/13 01:11:44;;;;;;;50.75;24.30;;;;;;;12.01;71.70;101905.69;690563;28;1327;-84
2021/12/13 01:12:09;;;;;;;54.25;26.02;;;;;;;11.94;71.63;101903.66;674328;29;1457;-83
2021/12/13 01:12:30;;;;;;;56.60;26.00;;;;;;;12.01;71.72;101908.31;677111;29;1264;-83
2021/12/13 01:12:51;;;;;;;55.65;26.15;;;;;;;11.97;71.74;101898.56;682930;28;1129;-83
2021/12/13 01:13:27;;;;;;;54.45;26.33;;;;;;;11.97;71.32;101898.56;679729;29;1375;-83
2021/12/13 01:13:48;;;;;;;52.10;25.60;;;;;;;12.01;71.58;101916.16;679914;29;1134;-83
2021/12/13 01:14:37;;;;;;;51.85;25.08;;;;;;;11.96;71.51;101898.47;682259;29;1354;-83
2021/12/13 01:15:37;;;;;;;46.58;24.60;;;;;;;11.91;71.49;101900.91;683163;28;1944;-83
2021/12/13 01:16:22;;;;;;;50.78;25.40;;;;;;;11.93;71.72;101907.13;676684;29;1531;-84
2021/12/13 01:17:27;;;;;;;48.00;24.45;;;;;;;11.90;72.01;101901.75;685335;28;1165;-83
2021/12/13 01:18:30;;;;;;;47.45;24.08;;;;;;;11.93;72.14;101907.13;687453;28;1073;-83
2021/12/13 01:18:57;;;;;;;50.90;25.08;;;;;;;11.81;71.96;101896.13;687487;28;1193;-83
2021/12/13 01:19:32;;;;;;;51.60;24.67;;;;;;;11.97;71.70;101911.63;684569;28;1231;-83
2021/12/13 01:20:05;;;;;;;51.47;24.80;;;;;;;11.90;71.85;101909.59;687813;28;1001;-83
2021/12/13 01:20:56;;;;;;;48.17;25.00;;;;;;;11.97;71.69;101916.88;687937;28;1100;-83
2021/12/13 01:21:32;;;;;;;49.75;24.67;;;;;;;11.91;71.76;101906.13;685245;28;1013;-83
2021/12/13 01:22:20;;;;;;;47.00;23.48;;;;;;;11.96;71.75;101915.09;685184;28;1376;-84
2021/12/13 01:23:27;;;;;;;50.08;24.92;;;;;;;11.96;71.57;101917.69;685784;28;1333;-84
2021/12/13 01:23:52;;;;;;;54.95;25.40;;;;;;;11.97;71.86;101918.59;684427;28;704;-83
2021/12/13 01:24:30;;;;;;;52.55;24.70;;;;;;;11.87;71.81;101901.63;687124;28;1278;-83
2021/12/13 01:26:00;;;;;;;47.28;24.30;;;;;;;11.91;72.15;101914.00;687869;28;1150;-84
2021/12/13 01:26:39;;;;;;;55.97;25.80;;;;;;;11.89;71.96;101908.72;685174;28;1204;-84
2021/12/13 01:27:00;;;;;;;50.95;25.20;;;;;;;11.91;71.75;101908.75;684686;28;1269;-83
2021/12/13 01:27:36;;;;;;;45.60;24.80;;;;;;;11.94;71.66;101906.28;680990;29;1665;-84
2021/12/13 01:28:08;;;;;;;46.17;24.83;;;;;;;12.00;71.94;101919.63;682615;28;1042;-83
2021/12/13 01:28:38;;;;;;;46.72;24.38;;;;;;;11.90;71.59;101897.41;682613;29;824;-84
2021/12/13 01:29:04;;;;;;;47.20;23.90;;;;;;;11.96;71.86;101922.94;687693;28;1120;-83
2021/12/13 01:29:27;;;;;;;47.75;22.80;;;;;;;11.96;71.93;101917.69;684610;28;1684;-84
2021/12/13 01:29:51;;;;;;;47.65;23.25;;;;;;;11.95;71.79;101913.31;687288;28;1442;-83
2021/12/13 01:30:19;;;;;;;44.63;22.85;;;;;;;11.93;71.88;101901.88;687703;28;1370;-84
2021/12/13 01:30:47;;;;;;;42.78;22.98;;;;;;;11.99;71.96;101917.81;686200;28;815;-84
2021/12/13 01:31:12;;;;;;;45.33;23.15;;;;;;;11.96;71.66;101911.56;687158;28;1038;-84
2021/12/13 01:31:37;;;;;;;44.47;23.25;;;;;;;12.02;71.83;101917.03;679923;29;1325;-83
2021/12/13 01:32:05;;;;;;;44.75;23.23;;;;;;;12.02;71.66;101923.19;682350;28;1294;-83
2021/12/13 01:32:45;;;;;;;46.70;23.45;;;;;;;11.96;71.68;101911.56;681989;28;1131;-83
2021/12/13 01:33:09;;;;;;;45.47;23.55;;;;;;;11.99;71.50;101915.19;683754;28;1137;-83
2021/12/13 01:33:31;;;;;;;43.33;23.50;;;;;;;11.98;71.71;101921.25;682475;29;1789;-84
2021/12/13 01:33:53;;;;;;;45.63;23.40;;;;;;;11.93;72.02;101918.47;684088;28;975;-83
2021/12/13 01:34:15;;;;;;;45.35;23.52;;;;;;;11.95;71.90;101921.16;683360;28;1507;-83
2021/12/13 01:34:37;;;;;;;44.50;24.00;;;;;;;11.92;71.66;101921.00;685197;28;1437;-84
2021/12/13 01:34:58;;;;;;;40.95;23.10;;;;;;;11.91;71.93;101914.00;682679;28;1113;-84
2021/12/13 01:35:23;;;;;;;42.35;22.90;;;;;;;11.87;71.93;101912.97;687859;28;1206;-83
2021/12/13 01:35:47;;;;;;;44.65;23.13;;;;;;;11.92;72.07;101905.31;683893;28;1261;-84
2021/12/13 01:36:10;;;;;;;49.15;23.58;;;;;;;11.96;71.63;101925.53;685577;28;1302;-84
2021/12/13 01:36:42;;;;;;;47.63;23.98;;;;;;;11.91;71.82;101909.66;685304;28;831;-84
2021/12/13 01:37:14;;;;;;;46.10;23.42;;;;;;;11.94;71.92;101927.22;686075;28;1092;-84
2021/12/13 01:37:35;;;;;;;45.80;23.05;;;;;;;11.96;72.11;101922.94;685524;28;1282;-83
2021/12/13 01:38:02;;;;;;;45.07;23.17;;;;;;;12.01;71.63;101921.41;687673;28;1072;-83
2021/12/13 01:38:33;;;;;;;46.63;22.77;;;;;;;12.01;71.59;101925.72;688083;28;843;-84
2021/12/13 01:39:04;;;;;;;46.20;22.90;;;;;;;11.94;71.95;101916.75;690811;28;1444;-82
2021/12/13 01:39:30;;;;;;;45.25;22.88;;;;;;;11.96;71.63;101917.69;682053;29;825;-83
2021/12/13 01:39:52;;;;;;;44.30;22.90;;;;;;;11.99;71.66;101917.81;685165;28;1211;-84
2021/12/13 01:40:15;;;;;;;42.05;22.52;;;;;;;12.04;71.89;101926.75;690704;28;1062;-84
2021/12/13 01:40:38;;;;;;;40.38;22.67;;;;;;;11.97;71.52;101919.47;687967;28;1263;-84
2021/12/13 01:41:08;;;;;;;41.50;23.30;;;;;;;11.88;71.84;101906.94;689374;28;1598;-83
2021/12/13 01:41:45;;;;;;;45.35;24.38;;;;;;;11.88;72.14;101934.81;687888;28;709;-83
2021/12/13 01:42:11;;;;;;;45.30;23.30;;;;;;;11.88;72.47;101921.72;687858;28;1430;-83
2021/12/13 01:42:32;;;;;;;43.83;23.40;;;;;;;11.83;72.31;101912.78;690453;28;1208;-84
2021/12/13 01:43:00;;;;;;;42.10;22.58;;;;;;;11.82;72.07;101918.84;687748;28;1244;-83
2021/12/13 01:43:24;;;;;;;41.15;23.08;;;;;;;11.87;72.08;101933.03;685205;28;1165;-84
2021/12/13 01:43:52;;;;;;;41.75;23.75;;;;;;;11.86;72.15;101921.66;689872;28;1357;-83
2021/12/13 01:44:15;;;;;;;42.13;23.70;;;;;;;11.88;72.56;101934.81;686347;28;1213;-83
2021/12/13 01:44:42;;;;;;;42.53;22.67;;;;;;;11.78;72.29;101915.22;683231;28;939;-83
2021/12/13 01:45:11;;;;;;;43.97;23.38;;;;;;;11.81;72.08;101923.22;690360;28;1179;-83
2021/12/13 01:45:36;;;;;;;43.42;22.92;;;;;;;11.83;72.75;101931.09;691394;28;1499;-83
2021/12/13 01:45:58;;;;;;;42.75;21.42;;;;;;;11.85;72.14;101926.84;687856;28;1059;-82
2021/12/13 01:46:21;;;;;;;39.63;21.48;;;;;;;11.81;72.16;101924.91;687931;28;931;-83
2021/12/13 01:46:46;;;;;;;40.97;22.40;;;;;;;11.77;72.61;101921.28;690687;28;811;-84
2021/12/13 01:47:11;;;;;;;42.05;23.52;;;;;;;11.78;72.43;101929.19;687585;28;1225;-84
2021/12/13 01:47:40;;;;;;;42.03;23.00;;;;;;;11.76;72.47;101924.72;685244;28;745;-84
2021/12/13 01:48:01;;;;;;;40.10;22.67;;;;;;;11.83;72.36;101929.38;682456;28;1053;-84
2021/12/13 01:48:30;;;;;;;42.10;23.27;;;;;;;11.95;72.45;101939.47;685175;28;1289;-84
2021/12/13 01:48:52;;;;;;;46.00;23.80;;;;;;;11.89;72.07;101931.34;683260;28;886;-83
2021/12/13 01:49:15;;;;;;;46.42;23.05;;;;;;;11.80;72.20;101931.84;687092;28;1255;-83
2021/12/13 01:49:40;;;;;;;45.17;23.08;;;;;;;11.86;72.33;101932.13;685371;28;1536;-83
2021/12/13 01:50:18;;;;;;;43.65;23.88;;;;;;;11.90;72.45;101934.03;686820;28;1135;-84
2021/12/13 01:50:47;;;;;;;44.55;23.60;;;;;;;11.83;72.36;101925.88;687013;28;1285;-83
2021/12/13 01:51:12;;;;;;;47.67;24.17;;;;;;;11.82;72.26;101918.84;688894;28;1213;-84
2021/12/13 01:51:34;;;;;;;54.38;24.45;;;;;;;11.90;72.26;101926.19;687828;28;1248;-83
2021/12/13 01:51:58;;;;;;;53.10;24.25;;;;;;;11.95;72.40;101926.38;685055;28;1949;-84
2021/12/13 01:52:23;;;;;;;55.50;25.13;;;;;;;11.93;72.06;101922.81;682542;29;1184;-84
2021/12/13 01:52:47;;;;;;;53.53;25.58;;;;;;;11.96;71.99;101909.84;687794;28;1350;-84
2021/12/13 01:53:07;;;;;;;54.92;25.83;;;;;;;11.94;71.74;101914.13;688768;28;1093;-84
2021/12/13 01:53:36;;;;;;;51.80;25.40;;;;;;;11.99;72.01;101917.81;688408;28;1230;-84
2021/12/13 01:54:07;;;;;;;51.55;25.00;;;;;;;12.06;72.11;101929.44;687719;28;1268;-83
2021/12/13 01:54:28;;;;;;;50.63;25.55;;;;;;;12.03;71.84;101924.97;682092;28;1778;-83
2021/12/13 01:54:50;;;;;;;47.88;25.35;;;;;;;12.06;71.88;101932.94;690225;28;1162;-83
2021/12/13 01:55:36;;;;;;;47.08;25.00;;;;;;;11.98;72.03;101934.34;686364;28;1139;-84
2021/12/13 01:56:08;;;;;;;44.20;24.60;;;;;;;11.93;71.99;101933.28;685290;28;1493;-83
2021/12/13 01:57:38;;;;;;;50.13;26.77;;;;;;;11.93;71.97;101938.50;692845;28;1255;-83
2021/12/13 01:58:46;;;;;;;50.80;26.88;;;;;;;12.04;71.96;101944.19;690538;28;835;-84
2021/12/13 01:59:29;;;;;;;49.40;26.27;;;;;;;12.02;71.78;101936.25;688920;28;1373;-82
2021/12/13 02:00:07;;;;;;;52.03;26.45;;;;;;;11.97;71.72;101935.19;687813;28;2032;-83
2021/12/13 02:01:22;;;;;;;54.53;26.10;;;;;;;11.77;72.40;101927.41;693044;28;1332;-84
2021/12/13 02:01:43;;;;;;;54.65;27.05;;;;;;;11.84;72.38;101928.56;693199;28;1626;-84
2021/12/13 02:02:27;;;;;;;54.83;27.45;;;;;;;11.86;72.25;101936.47;691554;28;1455;-84
2021/12/13 02:02:51;;;;;;;54.67;26.48;;;;;;;11.79;72.62;101938.81;689803;28;803;-84
2021/12/13 02:03:12;;;;;;;56.15;27.13;;;;;;;11.78;72.67;101933.50;684436;28;1253;-84
2021/12/13 02:03:45;;;;;;;55.87;27.33;;;;;;;11.84;72.63;101936.41;685270;28;927;-83
2021/12/13 02:04:07;;;;;;;52.63;26.58;;;;;;;11.75;72.75;101929.03;685675;28;1304;-84
2021/12/13 02:04:28;;;;;;;52.72;26.92;;;;;;;11.85;72.45;101945.16;687868;28;771;-84
2021/12/13 02:05:22;;;;;;;54.20;27.98;;;;;;;11.82;72.66;101943.28;687888;28;729;-84
2021/12/13 02:05:48;;;;;;;58.88;28.70;;;;;;;11.71;72.77;101929.75;686394;28;1150;-84
2021/12/13 02:06:10;;;;;;;59.42;28.45;;;;;;;11.73;72.93;101927.22;686153;28;1123;-85
2021/12/13 02:06:42;;;;;;;56.53;27.67;;;;;;;11.75;72.71;101939.50;685416;28;966;-83
2021/12/13 02:07:04;;;;;;;53.28;26.92;;;;;;;11.79;72.77;101941.44;689164;28;1516;-84
2021/12/13 02:07:29;;;;;;;52.50;27.35;;;;;;;11.74;72.55;101936.84;690739;28;815;-84
2021/12/13 02:07:53;;;;;;;54.53;27.95;;;;;;;11.74;72.75;101940.34;687786;28;1366;-84
2021/12/13 02:08:17;;;;;;;52.85;26.45;;;;;;;11.67;72.62;101930.44;687257;28;1219;-84
2021/12/13 02:08:37;;;;;;;52.10;26.60;;;;;;;11.71;72.99;101950.69;687358;28;1737;-84
2021/12/13 02:09:07;;;;;;;52.33;25.85;;;;;;;11.73;72.74;101945.53;682857;28;1434;-84
2021/12/13 02:09:35;;;;;;;52.35;25.90;;;;;;;11.63;72.91;101939.84;683613;28;1549;-84
2021/12/13 02:09:57;;;;;;;54.20;27.65;;;;;;;11.73;72.76;101942.91;682000;28;1264;-84
2021/12/13 02:10:30;;;;;;;55.55;28.55;;;;;;;11.75;72.72;101943.88;687734;28;1201;-84
2021/12/13 02:10:53;;;;;;;57.35;29.77;;;;;;;11.83;72.80;101952.94;690180;28;1110;-84
2021/12/13 02:11:14;;;;;;;55.10;29.25;;;;;;;11.77;72.79;101939.59;682082;28;1251;-84
2021/12/13 02:11:35;;;;;;;52.15;27.67;;;;;;;11.79;72.59;101944.06;688141;28;791;-83
2021/12/13 02:12:00;;;;;;;50.35;26.90;;;;;;;11.87;72.70;101944.34;689594;28;1969;-83
2021/12/13 02:12:20;;;;;;;52.95;26.38;;;;;;;11.77;72.66;101943.09;687672;28;1113;-84
2021/12/13 02:12:43;;;;;;;53.67;26.73;;;;;;;11.86;72.83;101947.81;683607;28;1236;-84
2021/12/13 02:13:20;;;;;;;52.13;26.77;;;;;;;11.82;72.48;101934.53;686739;28;1710;-84
2021/12/13 02:14:03;;;;;;;51.70;27.40;;;;;;;11.79;72.34;101936.22;690026;28;1255;-84
2021/12/13 02:14:30;;;;;;;53.35;27.77;;;;;;;11.83;72.55;101946.78;687790;28;1123;-84
2021/12/13 02:17:22;;;;;;;50.45;26.45;;;;;;;11.90;72.42;101951.44;685974;28;1353;-84
2021/12/13 02:17:46;;;;;;;50.58;25.77;;;;;;;11.90;72.16;101946.22;685262;28;862;-83
2021/12/13 02:18:12;;;;;;;51.40;26.13;;;;;;;11.92;72.22;101948.06;688879;28;1422;-84
2021/12/13 02:18:37;;;;;;;47.95;25.35;;;;;;;11.96;72.13;101958.66;687869;28;783;-84
2021/12/13 02:19:00;;;;;;;46.42;24.63;;;;;;;11.90;72.08;101944.50;682355;28;1256;-84
2021/12/13 02:19:26;;;;;;;45.28;23.90;;;;;;;11.84;72.12;101932.88;684806;28;1294;-83
2021/12/13 02:19:59;;;;;;;46.88;24.35;;;;;;;11.93;72.22;101946.38;689586;28;1245;-84
2021/12/13 02:20:30;;;;;;;46.88;25.73;;;;;;;11.93;72.29;101938.50;685065;28;1234;-84
2021/12/13 02:21:05;;;;;;;43.70;25.00;;;;;;;11.94;71.96;101950.75;687697;28;1312;-83
2021/12/13 02:21:31;;;;;;;43.05;24.40;;;;;;;11.84;72.40;101944.25;687782;28;893;-83
2021/12/13 02:22:04;;;;;;;43.03;24.42;;;;;;;11.87;72.28;101944.34;687822;28;1382;-84
2021/12/13 02:22:45;;;;;;;45.35;24.55;;;;;;;11.95;72.01;101949.94;686340;28;1160;-83
2021/12/13 02:23:06;;;;;;;51.33;24.90;;;;;;;11.92;72.20;101948.06;687162;28;1087;-83
2021/12/13 02:23:27;;;;;;;51.90;24.60;;;;;;;11.90;72.41;101939.28;687950;28;749;-84
2021/12/13 02:23:50;;;;;;;51.15;24.77;;;;;;;11.89;72.35;101940.09;685266;28;797;-84
2021/12/13 02:24:11;;;;;;;51.65;26.08;;;;;;;11.87;72.02;101940.88;685740;28;1229;-84
2021/12/13 02:24:36;;;;;;;50.55;26.35;;;;;;;11.90;72.31;101946.22;682513;29;1242;-84
2021/12/13 02:25:06;;;;;;;50.50;26.63;;;;;;;11.84;72.39;101940.72;679704;29;1251;-83
2021/12/13 02:25:32;;;;;;;50.35;26.40;;;;;;;11.94;72.29;101956.00;682439;29;1256;-84
2021/12/13 02:25:55;;;;;;;51.75;27.38;;;;;;;11.83;72.24;101941.56;688308;28;1123;-84
2021/12/13 02:26:17;;;;;;;51.67;27.40;;;;;;;11.90;72.20;101946.22;685247;28;1329;-84